Terminal Aerodrome Forecast
Issued by NWS Mobile, AL

Home | Current Version | Previous Version | Text Only | Print | Product List | Glossary On
Versions: 1 2 3 4 5 6 7 8 9 10 11 12 13 14 15 16 17 18 19 20 21 22 23 24 25 26 27 28 29 30 31 32 33 34 35 36 37 38 39 40 41 42
000
FTUS44 KMOB 210500 RRA
TAFMOB
TAF
KMOB 210556Z 2106/2206 03003KT P6SM OVC011
     FM210900 03007KT 5SM BR OVC004
     FM212100 04005KT P6SM OVC015
     FM220300 08004KT 2SM BR OVC015=

USA.gov is the U.S. government's official web portal to all federal, state and local government web resources and services.